createdAt,value
2023-04-29T00:00:08.717Z,68.20
2023-04-29T00:02:41.362Z,67.30
2023-04-29T00:05:10.591Z,67.00
2023-04-29T00:07:39.092Z,66.60
2023-04-29T00:10:08.099Z,64.60
2023-04-29T00:12:36.189Z,66.40
2023-04-29T00:15:06.205Z,67.50
2023-04-29T00:17:34.222Z,69.80
2023-04-29T00:20:04.000Z,68.50
2023-04-29T00:22:31.984Z,68.20
2023-04-29T00:24:59.998Z,68.20
2023-04-29T00:27:27.966Z,68.60
2023-04-29T00:29:57.193Z,69.90
2023-04-29T00:32:25.182Z,67.70
2023-04-29T00:34:53.210Z,68.90
2023-04-29T00:37:22.639Z,69.50
2023-04-29T00:39:50.709Z,71.10
2023-04-29T00:42:19.706Z,70.20
2023-04-29T00:44:47.700Z,70.30
2023-04-29T00:47:15.787Z,70.40
2023-04-29T00:49:44.355Z,74.10
2023-04-29T00:52:12.836Z,76.70
2023-04-29T00:54:42.673Z,75.70
2023-04-29T00:57:11.048Z,78.20
2023-04-29T00:59:39.547Z,79.10
2023-04-29T01:02:07.953Z,79.70
2023-04-29T01:04:36.111Z,81.70
2023-04-29T01:07:10.668Z,86.40
2023-04-29T01:09:57.047Z,90.70
2023-04-29T01:12:33.818Z,90.30
2023-04-29T01:15:07.345Z,91.00
2023-04-29T01:17:41.892Z,91.70
2023-04-29T01:20:12.060Z,91.40
2023-04-29T01:22:40.167Z,91.00
2023-04-29T01:25:10.818Z,88.90
2023-04-29T01:28:15.464Z,82.30
2023-04-29T01:30:51.431Z,80.30
2023-04-29T01:33:28.799Z,76.20
2023-04-29T01:36:17.141Z,76.30
2023-04-29T01:38:54.215Z,75.30
2023-04-29T01:41:36.523Z,74.40
2023-04-29T01:44:18.790Z,73.60
2023-04-29T01:46:51.645Z,72.60
2023-04-29T01:49:22.323Z,72.00
2023-04-29T01:51:50.636Z,73.50
2023-04-29T01:54:18.991Z,73.60
2023-04-29T01:56:48.896Z,74.80
2023-04-29T01:59:25.670Z,73.50
2023-04-29T02:02:05.700Z,71.70
2023-04-29T02:04:35.804Z,71.60
2023-04-29T02:07:04.519Z,72.00
2023-04-29T02:09:33.024Z,72.90
2023-04-29T02:12:09.887Z,74.50
2023-04-29T02:14:38.138Z,74.60
2023-04-29T02:17:06.868Z,74.60
2023-04-29T02:19:35.374Z,73.20
2023-04-29T02:22:04.329Z,75.40
2023-04-29T02:24:32.560Z,73.20
2023-04-29T02:27:00.589Z,74.10
2023-04-29T02:29:31.148Z,72.70
2023-04-29T02:32:00.026Z,72.50
2023-04-29T02:34:28.000Z,74.00
2023-04-29T02:36:55.893Z,71.90
2023-04-29T02:39:23.835Z,72.50
2023-04-29T02:41:57.208Z,72.60
2023-04-29T02:44:25.236Z,73.80
2023-04-29T02:46:54.781Z,73.90
2023-04-29T02:49:22.722Z,73.40
2023-04-29T02:51:50.860Z,75.40
2023-04-29T02:54:19.061Z,74.60
2023-04-29T02:56:47.291Z,74.30
2023-04-29T02:59:15.310Z,74.20
2023-04-29T03:01:46.332Z,73.30
2023-04-29T03:04:16.051Z,73.20
2023-04-29T03:06:44.759Z,71.90
2023-04-29T03:09:14.468Z,74.00
2023-04-29T03:11:45.546Z,72.10
2023-04-29T03:14:13.600Z,70.60
2023-04-29T03:16:42.683Z,72.00
2023-04-29T03:19:10.852Z,71.20
2023-04-29T03:21:40.285Z,71.90
2023-04-29T03:24:08.758Z,71.40
2023-04-29T03:26:38.219Z,72.40
2023-04-29T03:29:06.492Z,72.10
2023-04-29T03:31:35.576Z,73.10
2023-04-29T03:34:04.185Z,71.40
2023-04-29T03:36:35.609Z,70.60
2023-04-29T03:39:09.292Z,71.10
2023-04-29T03:41:37.520Z,71.00
2023-04-29T03:44:05.891Z,72.40
2023-04-29T03:46:33.947Z,71.20
2023-04-29T03:49:03.361Z,71.60
2023-04-29T03:51:31.917Z,73.20
2023-04-29T03:54:10.613Z,72.50
2023-04-29T03:56:41.948Z,72.60
2023-04-29T03:59:10.141Z,72.70
2023-04-29T04:01:39.922Z,72.80
2023-04-29T04:04:08.699Z,72.50
2023-04-29T04:06:40.664Z,71.50
2023-04-29T04:09:10.221Z,71.10
2023-04-29T04:11:38.741Z,71.30
2023-04-29T04:14:07.448Z,70.70
2023-04-29T04:16:36.394Z,69.20
2023-04-29T04:19:04.517Z,70.60
2023-04-29T04:21:36.789Z,70.80
2023-04-29T04:24:10.267Z,71.30
2023-04-29T04:26:39.364Z,69.90
2023-04-29T04:29:17.741Z,68.40
2023-04-29T04:31:52.154Z,68.40
2023-04-29T04:34:21.390Z,68.30
2023-04-29T04:36:51.660Z,64.60
2023-04-29T04:39:21.143Z,62.10
2023-04-29T04:41:49.743Z,62.90
2023-04-29T04:44:18.179Z,58.50
2023-04-29T04:47:02.291Z,59.80
2023-04-29T04:49:44.386Z,58.20
2023-04-29T04:52:13.415Z,56.10
2023-04-29T04:54:47.694Z,53.30
2023-04-29T04:57:22.414Z,54.20
2023-04-29T04:59:50.677Z,53.50
2023-04-29T05:02:19.444Z,51.70
2023-04-29T05:04:47.640Z,54.20
2023-04-29T05:07:17.672Z,52.30
2023-04-29T05:10:02.021Z,54.70
2023-04-29T05:12:32.441Z,51.50
2023-04-29T05:15:02.078Z,52.30
2023-04-29T05:17:31.194Z,51.60
2023-04-29T05:19:59.336Z,49.30
2023-04-29T05:22:27.326Z,51.30
2023-04-29T05:25:00.433Z,50.90
2023-04-29T05:27:30.106Z,50.10
2023-04-29T05:29:58.847Z,49.90
2023-04-29T05:32:26.955Z,48.50
2023-04-29T05:34:54.966Z,47.40
2023-04-29T05:37:23.151Z,47.50
2023-04-29T05:40:14.383Z,48.80
2023-04-29T05:42:44.583Z,49.10
2023-04-29T05:45:14.215Z,48.30
2023-04-29T05:47:42.460Z,47.90
2023-04-29T05:50:11.637Z,48.80
2023-04-29T05:52:40.563Z,49.30
2023-04-29T05:55:09.085Z,47.00
2023-04-29T05:57:37.443Z,46.70
2023-04-29T06:00:08.506Z,45.00
2023-04-29T06:02:54.770Z,45.50
2023-04-29T06:05:27.050Z,45.10
2023-04-29T06:08:18.749Z,45.40
2023-04-29T06:10:54.904Z,44.90
2023-04-29T06:13:22.926Z,43.80
2023-04-29T06:15:52.412Z,43.80
2023-04-29T06:18:20.884Z,43.70
2023-04-29T06:20:50.517Z,42.20
2023-04-29T06:23:18.633Z,42.80
2023-04-29T06:25:46.679Z,42.10
2023-04-29T06:28:14.666Z,40.30
2023-04-29T06:30:42.742Z,39.20
2023-04-29T06:33:13.854Z,38.60
2023-04-29T06:35:42.593Z,37.70
2023-04-29T06:38:30.879Z,37.60
2023-04-29T06:41:17.573Z,38.30
2023-04-29T06:44:02.197Z,38.20
2023-04-29T06:46:48.654Z,36.50
2023-04-29T06:49:28.976Z,37.10
2023-04-29T06:51:57.016Z,37.20
2023-04-29T06:54:28.629Z,36.40
2023-04-29T06:56:58.240Z,35.10
2023-04-29T06:59:26.612Z,36.00
2023-04-29T07:01:54.768Z,35.30
2023-04-29T07:04:22.823Z,35.30
2023-04-29T07:06:57.023Z,34.40
2023-04-29T07:09:26.483Z,33.80
2023-04-29T07:11:55.075Z,33.50
2023-04-29T07:14:23.886Z,34.70
2023-04-29T07:16:55.199Z,32.80
2023-04-29T07:19:23.619Z,34.70
2023-04-29T07:21:53.227Z,32.60
2023-04-29T07:24:23.060Z,34.60
2023-04-29T07:26:51.073Z,35.50
2023-04-29T07:29:19.360Z,34.50
2023-04-29T07:31:47.793Z,32.10
2023-04-29T07:34:16.815Z,31.70
2023-04-29T07:36:45.140Z,32.60
2023-04-29T07:39:15.621Z,32.20
2023-04-29T07:41:46.072Z,30.00
2023-04-29T07:44:14.490Z,30.80
2023-04-29T07:46:42.610Z,31.10
2023-04-29T07:49:10.728Z,30.00
2023-04-29T07:51:38.813Z,29.30
2023-04-29T07:54:07.242Z,29.00
2023-04-29T07:56:36.902Z,27.10
2023-04-29T07:59:05.190Z,26.90
2023-04-29T08:01:33.444Z,26.60
2023-04-29T08:04:01.708Z,26.00
2023-04-29T08:06:30.781Z,26.70
2023-04-29T08:08:58.768Z,26.50
2023-04-29T08:11:27.046Z,25.70
2023-04-29T08:13:58.790Z,26.00
2023-04-29T08:16:27.058Z,25.50
2023-04-29T08:18:56.325Z,26.00
2023-04-29T08:21:24.662Z,25.00
2023-04-29T08:23:53.700Z,25.80
2023-04-29T08:26:24.022Z,25.40
2023-04-29T08:28:52.355Z,25.40
2023-04-29T08:31:23.062Z,25.50
2023-04-29T08:33:51.211Z,24.70
2023-04-29T08:36:19.577Z,24.60
2023-04-29T08:38:48.882Z,24.20
2023-04-29T08:41:17.074Z,23.30
2023-04-29T08:43:45.238Z,23.60
2023-04-29T08:46:14.001Z,22.70
2023-04-29T08:48:45.553Z,21.70
2023-04-29T08:51:14.432Z,21.40
2023-04-29T08:53:42.635Z,21.70
2023-04-29T08:56:22.008Z,21.90
2023-04-29T08:58:54.714Z,20.50
2023-04-29T09:01:24.194Z,21.10
2023-04-29T09:04:02.694Z,21.40
2023-04-29T09:06:33.640Z,21.50
2023-04-29T09:09:03.062Z,20.80
2023-04-29T09:11:32.085Z,20.40
2023-04-29T09:14:02.343Z,20.60
2023-04-29T09:16:30.648Z,20.90
2023-04-29T09:19:00.268Z,19.90
2023-04-29T09:21:31.482Z,20.10
2023-04-29T09:24:00.717Z,20.90
2023-04-29T09:26:34.837Z,20.90
2023-04-29T09:29:10.095Z,20.30
2023-04-29T09:31:39.838Z,19.90
2023-04-29T09:34:09.984Z,20.60
2023-04-29T09:36:40.003Z,19.10
2023-04-29T09:39:11.720Z,19.60
2023-04-29T09:42:02.647Z,19.40
2023-04-29T09:44:34.173Z,19.70
2023-04-29T09:47:04.093Z,19.10
2023-04-29T09:49:35.681Z,20.10
2023-04-29T09:52:05.776Z,19.40
2023-04-29T09:54:36.144Z,19.70
2023-04-29T09:57:07.076Z,19.40
2023-04-29T09:59:36.502Z,20.60
2023-04-29T10:02:09.324Z,20.00
2023-04-29T10:04:42.976Z,19.70
2023-04-29T10:07:15.719Z,19.70
2023-04-29T10:09:46.177Z,20.30
2023-04-29T10:12:17.776Z,19.00
2023-04-29T10:14:51.912Z,19.20
2023-04-29T10:17:25.229Z,18.80
2023-04-29T10:20:05.623Z,19.60
2023-04-29T10:22:37.749Z,20.10
2023-04-29T10:25:08.729Z,19.80
2023-04-29T10:27:39.157Z,20.10
2023-04-29T10:30:11.364Z,19.50
2023-04-29T10:32:50.640Z,18.30
2023-04-29T10:35:25.657Z,18.60
2023-04-29T10:37:55.870Z,18.40
2023-04-29T10:40:31.965Z,19.10
2023-04-29T10:43:00.599Z,18.60
2023-04-29T10:45:31.760Z,19.70
2023-04-29T10:48:18.742Z,19.30
2023-04-29T10:51:06.584Z,18.80
2023-04-29T10:53:34.569Z,19.40
2023-04-29T10:56:09.613Z,19.70
2023-04-29T10:58:43.007Z,19.00
2023-04-29T11:01:12.874Z,18.70
2023-04-29T11:04:01.377Z,19.20
2023-04-29T11:06:49.057Z,20.60
2023-04-29T11:09:22.062Z,18.20
2023-04-29T11:12:02.924Z,18.70
2023-04-29T11:14:33.847Z,18.10
2023-04-29T11:17:04.159Z,18.00
2023-04-29T11:19:33.879Z,18.90
2023-04-29T11:22:12.113Z,18.30
2023-04-29T11:24:51.673Z,18.10
2023-04-29T11:27:23.006Z,19.20
2023-04-29T11:29:51.839Z,19.40
2023-04-29T11:32:23.185Z,18.20
2023-04-29T11:34:51.502Z,18.80
2023-04-29T11:37:25.619Z,18.70
2023-04-29T11:39:59.952Z,18.00
2023-04-29T11:42:28.637Z,17.90
2023-04-29T11:45:02.045Z,17.90
2023-04-29T11:47:31.136Z,18.20
2023-04-29T11:50:06.449Z,17.50
2023-04-29T11:52:37.780Z,18.00
2023-04-29T11:55:06.805Z,18.90
2023-04-29T11:57:34.793Z,18.20
2023-04-29T12:00:02.830Z,18.20
2023-04-29T12:02:36.378Z,18.40
2023-04-29T12:05:08.526Z,18.40
2023-04-29T12:07:38.384Z,19.70
2023-04-29T12:10:10.470Z,19.80
2023-04-29T12:12:40.688Z,20.10
2023-04-29T12:15:10.586Z,20.00
2023-04-29T12:17:39.186Z,20.10
2023-04-29T12:20:09.212Z,19.60
2023-04-29T12:22:38.551Z,19.40
2023-04-29T12:25:07.763Z,19.80
2023-04-29T12:27:37.223Z,18.80
2023-04-29T12:30:09.471Z,20.30
2023-04-29T12:32:37.978Z,19.40
2023-04-29T12:35:07.342Z,19.00
2023-04-29T12:37:35.438Z,17.80
2023-04-29T12:40:05.525Z,18.70
2023-04-29T12:42:34.563Z,19.60
2023-04-29T12:45:02.702Z,20.20
2023-04-29T12:47:36.968Z,21.00
2023-04-29T12:50:07.467Z,20.00
2023-04-29T12:52:36.852Z,18.50
2023-04-29T12:55:06.864Z,18.80
2023-04-29T12:57:34.923Z,19.50
2023-04-29T13:00:02.961Z,19.10
2023-04-29T13:02:31.032Z,19.90
2023-04-29T13:04:59.535Z,20.80
2023-04-29T13:07:27.807Z,21.60
2023-04-29T13:09:55.911Z,20.80
2023-04-29T13:12:25.210Z,20.40
2023-04-29T13:14:55.095Z,21.50
2023-04-29T13:17:24.753Z,22.00
2023-04-29T13:19:52.739Z,22.10
2023-04-29T13:22:21.713Z,22.80
2023-04-29T13:24:50.115Z,22.90
2023-04-29T13:27:18.257Z,23.50
2023-04-29T13:29:48.154Z,23.80
2023-04-29T13:32:18.303Z,23.50
2023-04-29T13:34:46.915Z,23.60
2023-04-29T13:37:14.960Z,23.10
2023-04-29T13:39:45.774Z,23.90
2023-04-29T13:42:15.951Z,24.40
2023-04-29T13:44:52.170Z,23.80
2023-04-29T13:47:26.117Z,24.30
2023-04-29T13:53:18.528Z,24.20
2023-04-29T13:56:07.365Z,24.90
2023-04-29T14:01:01.892Z,24.30
2023-04-29T14:03:23.023Z,24.30
2023-04-29T14:05:51.359Z,24.30
2023-04-29T14:08:19.592Z,24.30
2023-04-29T14:10:47.966Z,23.30
2023-04-29T14:13:16.050Z,23.80
2023-04-29T14:15:44.073Z,23.80
2023-04-29T14:18:12.181Z,24.40
2023-04-29T14:20:41.477Z,23.80
2023-04-29T14:23:09.437Z,23.10
2023-04-29T14:25:37.594Z,23.40
2023-04-29T14:28:05.896Z,24.10
2023-04-29T14:30:34.051Z,24.20
2023-04-29T14:33:02.116Z,23.90
2023-04-29T14:35:30.143Z,24.50
2023-04-29T14:37:59.449Z,25.10
2023-04-29T14:40:27.455Z,24.50
2023-04-29T14:42:55.477Z,23.90
2023-04-29T14:45:23.515Z,24.70
2023-04-29T14:47:51.557Z,24.00
2023-04-29T14:50:19.479Z,24.80
2023-04-29T14:52:47.485Z,24.90
2023-04-29T14:55:17.184Z,24.40
2023-04-29T14:57:45.169Z,25.50
2023-04-29T15:00:15.015Z,25.10
2023-04-29T15:02:43.024Z,25.30
2023-04-29T15:05:11.293Z,25.80
2023-04-29T15:07:39.464Z,25.60
2023-04-29T15:10:09.346Z,25.80
2023-04-29T15:12:38.857Z,25.50
2023-04-29T15:15:08.261Z,25.80
2023-04-29T15:17:36.352Z,25.90
2023-04-29T15:20:04.722Z,25.30
2023-04-29T15:22:32.694Z,26.00
2023-04-29T15:25:01.018Z,26.10
2023-04-29T15:27:29.300Z,25.70
2023-04-29T15:29:58.680Z,26.90
2023-04-29T15:32:31.454Z,26.10
2023-04-29T15:34:59.771Z,25.50
2023-04-29T15:37:28.676Z,26.00
2023-04-29T15:39:56.998Z,26.90
2023-04-29T15:42:24.981Z,26.50
2023-04-29T15:44:52.926Z,26.30
2023-04-29T15:47:22.763Z,26.10
2023-04-29T15:49:52.076Z,26.40
2023-04-29T15:52:20.612Z,26.30
2023-04-29T15:54:48.764Z,26.10
2023-04-29T15:57:16.697Z,26.40
2023-04-29T15:59:44.645Z,26.60
2023-04-29T16:02:12.720Z,26.80
2023-04-29T16:04:42.035Z,26.70
2023-04-29T16:07:10.166Z,26.70
2023-04-29T16:09:38.170Z,26.40
2023-04-29T16:12:06.598Z,26.90
2023-04-29T16:14:34.657Z,26.50
2023-04-29T16:17:02.717Z,26.80
2023-04-29T16:19:31.449Z,26.70
2023-04-29T16:22:01.024Z,27.00
2023-04-29T16:24:29.041Z,27.20
2023-04-29T16:26:58.835Z,26.90
2023-04-29T16:29:26.909Z,27.20
2023-04-29T16:31:55.632Z,27.50
2023-04-29T16:34:23.623Z,27.40
2023-04-29T16:36:52.327Z,27.70
2023-04-29T16:39:21.902Z,27.70
2023-04-29T16:41:50.080Z,27.90
2023-04-29T16:44:18.034Z,28.30
2023-04-29T16:46:46.417Z,28.50
2023-04-29T16:49:15.122Z,29.00
2023-04-29T16:51:43.209Z,28.20
2023-04-29T16:54:11.247Z,28.40
2023-04-29T16:56:40.524Z,28.50
2023-04-29T16:59:08.679Z,29.00
2023-04-29T17:01:36.621Z,29.30
2023-04-29T17:04:05.504Z,29.40
2023-04-29T17:06:34.746Z,29.60
2023-04-29T17:09:03.375Z,29.70
2023-04-29T17:11:31.346Z,29.80
2023-04-29T17:14:00.694Z,31.00
2023-04-29T17:16:30.093Z,32.90
2023-04-29T17:18:58.158Z,34.30
2023-04-29T17:21:26.226Z,35.00
2023-04-29T17:23:54.228Z,35.30
2023-04-29T17:26:22.747Z,37.00
2023-04-29T17:28:50.752Z,37.00
2023-04-29T17:31:20.939Z,37.10
2023-04-29T17:33:55.134Z,37.90
2023-04-29T17:36:23.268Z,38.10
2023-04-29T17:38:51.573Z,38.60
2023-04-29T17:41:19.589Z,39.50
2023-04-29T17:43:47.511Z,40.50
2023-04-29T17:46:15.600Z,41.10
2023-04-29T17:48:44.919Z,42.20
2023-04-29T17:51:12.890Z,42.60
2023-04-29T17:53:40.873Z,43.40
2023-04-29T17:56:09.028Z,43.10
2023-04-29T17:58:37.002Z,43.90
2023-04-29T18:01:06.356Z,44.90
2023-04-29T18:03:34.400Z,44.90
2023-04-29T18:06:04.039Z,45.80
2023-04-29T18:08:32.156Z,45.20
2023-04-29T18:11:00.285Z,45.80
2023-04-29T18:13:28.284Z,46.90
2023-04-29T18:15:56.423Z,47.00
2023-04-29T18:18:26.018Z,48.00
2023-04-29T18:20:54.241Z,48.90
2023-04-29T18:23:23.708Z,49.60
2023-04-29T18:25:51.869Z,50.60
2023-04-29T18:28:25.107Z,51.00
2023-04-29T18:30:53.557Z,51.70
2023-04-29T18:33:23.176Z,52.30
2023-04-29T18:35:51.622Z,53.20
2023-04-29T18:38:19.634Z,53.70
2023-04-29T18:40:49.534Z,54.50
2023-04-29T18:43:22.359Z,54.60
2023-04-29T18:45:50.371Z,54.70
2023-04-29T18:48:18.385Z,55.10
2023-04-29T18:50:46.375Z,55.60
2023-04-29T18:53:14.677Z,56.00
2023-04-29T18:55:42.634Z,56.90
2023-04-29T18:58:12.048Z,58.90
2023-04-29T19:00:40.328Z,60.60
2023-04-29T19:03:08.383Z,61.60
2023-04-29T19:05:36.495Z,62.00
2023-04-29T19:08:04.760Z,62.50
2023-04-29T19:10:32.800Z,63.20
2023-04-29T19:13:01.525Z,63.70
2023-04-29T19:15:32.003Z,64.70
2023-04-29T19:18:00.128Z,65.40
2023-04-29T19:20:28.454Z,66.80
2023-04-29T19:22:56.833Z,67.70
2023-04-29T19:25:26.055Z,68.10
2023-04-29T19:27:54.532Z,67.30
2023-04-29T19:30:22.474Z,69.00
2023-04-29T19:32:51.819Z,68.70
2023-04-29T19:35:19.812Z,69.00
2023-04-29T19:37:47.765Z,69.20
2023-04-29T19:40:15.956Z,70.00
2023-04-29T19:42:45.038Z,71.10
2023-04-29T19:45:13.415Z,72.70
2023-04-29T19:47:41.367Z,75.00
2023-04-29T19:50:11.018Z,76.70
2023-04-29T19:52:39.126Z,77.10
2023-04-29T19:55:09.095Z,78.90
2023-04-29T19:57:38.848Z,79.70
2023-04-29T20:00:09.536Z,80.00
2023-04-29T20:02:37.948Z,80.50
2023-04-29T20:05:06.843Z,83.60
2023-04-29T20:07:36.166Z,84.20
2023-04-29T20:10:04.684Z,85.40
2023-04-29T20:12:32.944Z,84.80
2023-04-29T20:15:02.211Z,85.30
2023-04-29T20:17:30.225Z,86.10
2023-04-29T20:19:58.240Z,87.70
2023-04-29T20:22:26.201Z,88.50
2023-04-29T20:24:55.740Z,88.50
2023-04-29T20:27:23.754Z,88.60
2023-04-29T20:29:51.708Z,88.70
2023-04-29T20:32:19.793Z,88.80
2023-04-29T20:34:47.919Z,88.90
2023-04-29T20:37:15.967Z,89.40
2023-04-29T20:39:44.007Z,89.90
2023-04-29T20:42:13.491Z,90.30
2023-04-29T20:44:41.729Z,90.30
2023-04-29T20:47:09.853Z,90.50
2023-04-29T20:49:37.810Z,91.10
2023-04-29T20:52:07.288Z,92.30
2023-04-29T20:54:35.654Z,92.30
2023-04-29T20:57:05.498Z,91.50
2023-04-29T20:59:35.269Z,90.80
2023-04-29T21:02:03.290Z,91.10
2023-04-29T21:04:31.431Z,90.90
2023-04-29T21:06:59.571Z,91.00
2023-04-29T21:09:27.612Z,91.30
2023-04-29T21:11:57.907Z,91.70
2023-04-29T21:14:26.173Z,91.80
2023-04-29T21:16:55.815Z,91.60
2023-04-29T21:19:23.837Z,91.40
2023-04-29T21:21:51.728Z,91.60
2023-04-29T21:24:19.733Z,91.70
2023-04-29T21:26:47.681Z,91.90
2023-04-29T21:29:15.669Z,92.10
2023-04-29T21:31:43.932Z,92.40
2023-04-29T21:34:13.325Z,92.70
2023-04-29T21:36:41.282Z,92.80
2023-04-29T21:39:09.937Z,93.20
2023-04-29T21:41:39.699Z,93.50
2023-04-29T21:44:08.312Z,94.20
2023-04-29T21:46:37.292Z,94.20
2023-04-29T21:49:05.399Z,94.80
2023-04-29T21:51:35.628Z,95.30
2023-04-29T21:54:05.945Z,96.00
2023-04-29T21:56:33.950Z,96.70
2023-04-29T21:59:02.012Z,97.60
2023-04-29T22:01:43.962Z,98.20
2023-04-29T22:04:12.183Z,98.70
2023-04-29T22:06:41.677Z,99.20
2023-04-29T22:09:10.208Z,99.90
2023-04-29T22:11:38.531Z,99.90
2023-04-29T22:14:06.648Z,99.90
2023-04-29T22:16:35.942Z,99.90
2023-04-29T22:19:04.162Z,99.90
2023-04-29T22:21:33.068Z,99.90
2023-04-29T22:24:02.340Z,99.90
2023-04-29T22:26:30.272Z,99.90
2023-04-29T22:28:58.673Z,99.90
2023-04-29T22:31:26.876Z,99.90
2023-04-29T22:33:54.936Z,99.90
2023-04-29T22:36:23.096Z,99.90
2023-04-29T22:38:51.256Z,99.90
2023-04-29T22:41:21.726Z,99.90
2023-04-29T22:43:49.757Z,99.90
2023-04-29T22:46:17.939Z,99.90
2023-04-29T22:48:45.953Z,99.90
2023-04-29T22:51:13.902Z,99.90
2023-04-29T22:53:41.860Z,99.90
2023-04-29T22:56:09.863Z,99.90
2023-04-29T22:58:39.536Z,99.90
2023-04-29T23:01:08.516Z,99.90
2023-04-29T23:03:38.773Z,99.90
2023-04-29T23:06:06.966Z,99.90
2023-04-29T23:08:34.990Z,99.90
2023-04-29T23:11:03.022Z,99.90
2023-04-29T23:13:31.990Z,99.90
2023-04-29T23:16:02.484Z,99.90
2023-04-29T23:18:30.745Z,99.90
2023-04-29T23:20:58.720Z,99.90
2023-04-29T23:23:26.733Z,99.90
2023-04-29T23:25:54.708Z,99.90
2023-04-29T23:28:24.557Z,99.90
2023-04-29T23:30:52.696Z,99.90
2023-04-29T23:33:22.108Z,99.90
2023-04-29T23:35:50.759Z,99.90
2023-04-29T23:38:18.860Z,99.90
2023-04-29T23:40:47.367Z,99.90
2023-04-29T23:43:15.891Z,99.90
2023-04-29T23:45:45.295Z,99.90
2023-04-29T23:48:13.366Z,99.90
2023-04-29T23:50:42.634Z,99.90
2023-04-29T23:53:10.591Z,99.90
2023-04-29T23:55:38.557Z,99.90
2023-04-29T23:58:07.566Z,99.90
